Time;durP1;ratioP1;P1;durP2;ratioP2;P2;SDS_P1;SDS_P2;PMS_P1;PMS_P2;Temp;Humidity;BMP_temperature;BMP_pressure;BME280_temperature;BME280_humidity;BME280_pressure;Samples;Min_cycle;Max_cycle;Signal;HPM_P1;HPM_P2
2023/09/19 00:00:08;;;;;;;2.50;1.30;;;;;;;;;;467105;28;1123;-75
2023/09/19 00:00:27;;;;;;;2.63;1.30;;;;;;;;;;468489;28;1289;-75
2023/09/19 00:00:43;;;;;;;2.42;1.30;;;;;;;;;;470074;28;1074;-75
2023/09/19 00:00:59;;;;;;;2.35;1.42;;;;;;;;;;470873;28;1460;-75
2023/09/19 00:01:15;;;;;;;3.40;1.53;;;;;;;;;;469503;28;1230;-74
2023/09/19 00:01:30;;;;;;;3.17;1.42;;;;;;;;;;469940;28;1137;-75
2023/09/19 00:01:45;;;;;;;2.20;1.25;;;;;;;;;;468655;28;1330;-75
2023/09/19 00:02:04;;;;;;;2.07;1.30;;;;;;;;;;469867;28;952;-75
2023/09/19 00:02:19;;;;;;;3.03;1.42;;;;;;;;;;468945;28;1268;-74
2023/09/19 00:02:36;;;;;;;2.67;1.23;;;;;;;;;;469770;28;962;-75
2023/09/19 00:03:00;;;;;;;1.73;1.27;;;;;;;;;;470417;28;1065;-75
2023/09/19 00:03:15;;;;;;;1.98;1.30;;;;;;;;;;471650;28;1342;-74
2023/09/19 00:03:31;;;;;;;3.25;1.40;;;;;;;;;;470909;28;945;-74
2023/09/19 00:03:46;;;;;;;3.27;1.47;;;;;;;;;;471406;28;1104;-74
2023/09/19 00:04:02;;;;;;;2.10;1.40;;;;;;;;;;468896;28;1463;-75
2023/09/19 00:04:19;;;;;;;1.95;1.30;;;;;;;;;;470599;28;1214;-75
2023/09/19 00:04:34;;;;;;;2.10;1.35;;;;;;;;;;469124;28;1552;-75
2023/09/19 00:04:49;;;;;;;2.15;1.40;;;;;;;;;;468542;28;1340;-75
2023/09/19 00:05:05;;;;;;;2.00;1.20;;;;;;;;;;467516;28;1092;-75
2023/09/19 00:05:25;;;;;;;2.23;1.10;;;;;;;;;;465420;28;1172;-75
2023/09/19 00:05:44;;;;;;;2.40;1.33;;;;;;;;;;463910;28;1265;-75
2023/09/19 00:05:59;;;;;;;2.80;1.48;;;;;;;;;;467387;28;1223;-74
2023/09/19 00:06:15;;;;;;;2.60;1.40;;;;;;;;;;465130;28;937;-75
2023/09/19 00:06:31;;;;;;;2.05;1.40;;;;;;;;;;466467;28;1106;-74
2023/09/19 00:06:47;;;;;;;2.33;1.37;;;;;;;;;;466727;28;1190;-75
2023/09/19 00:07:02;;;;;;;2.30;1.25;;;;;;;;;;468247;28;944;-75
2023/09/19 00:07:18;;;;;;;2.95;1.20;;;;;;;;;;469072;28;1135;-74
2023/09/19 00:07:33;;;;;;;3.50;1.30;;;;;;;;;;468850;28;1208;-74
2023/09/19 00:07:54;;;;;;;3.38;1.33;;;;;;;;;;468422;28;953;-75
2023/09/19 00:08:10;;;;;;;3.60;1.30;;;;;;;;;;467723;28;1462;-75
2023/09/19 00:08:25;;;;;;;2.47;1.35;;;;;;;;;;468176;28;961;-75
2023/09/19 00:08:43;;;;;;;2.92;1.50;;;;;;;;;;468247;28;1356;-75
2023/09/19 00:09:00;;;;;;;2.95;1.30;;;;;;;;;;469057;28;950;-75
2023/09/19 00:09:15;;;;;;;2.40;1.27;;;;;;;;;;469540;28;1283;-75
2023/09/19 00:09:30;;;;;;;2.53;1.30;;;;;;;;;;468902;28;1180;-75
2023/09/19 00:09:46;;;;;;;2.33;1.27;;;;;;;;;;468106;28;1469;-75
2023/09/19 00:10:02;;;;;;;2.03;1.20;;;;;;;;;;468842;28;1168;-74
2023/09/19 00:10:19;;;;;;;2.78;1.25;;;;;;;;;;468858;28;1268;-75
2023/09/19 00:10:39;;;;;;;3.88;1.50;;;;;;;;;;470881;28;1275;-75
2023/09/19 00:10:55;;;;;;;3.13;1.40;;;;;;;;;;469586;28;1288;-75
2023/09/19 00:11:10;;;;;;;2.22;1.30;;;;;;;;;;466910;28;1359;-75
2023/09/19 00:11:26;;;;;;;2.25;1.30;;;;;;;;;;466904;28;1296;-75
2023/09/19 00:11:42;;;;;;;2.00;1.40;;;;;;;;;;465337;28;1345;-75
2023/09/19 00:11:57;;;;;;;2.20;1.40;;;;;;;;;;464945;28;1248;-75
2023/09/19 00:12:13;;;;;;;2.27;1.40;;;;;;;;;;465034;28;934;-75
2023/09/19 00:12:28;;;;;;;2.88;1.40;;;;;;;;;;464847;28;1231;-75
2023/09/19 00:12:43;;;;;;;3.00;1.40;;;;;;;;;;463980;28;1173;-75
2023/09/19 00:12:59;;;;;;;2.33;1.40;;;;;;;;;;465063;28;1085;-75
2023/09/19 00:13:14;;;;;;;2.33;1.40;;;;;;;;;;466109;28;1195;-75
2023/09/19 00:13:30;;;;;;;2.27;1.37;;;;;;;;;;464387;28;1344;-75
2023/09/19 00:13:49;;;;;;;2.20;1.35;;;;;;;;;;466527;28;2007;-74
2023/09/19 00:14:07;;;;;;;2.53;1.30;;;;;;;;;;466010;28;1493;-74
2023/09/19 00:14:25;;;;;;;2.55;1.30;;;;;;;;;;466135;28;2569;-75
2023/09/19 00:14:40;;;;;;;2.70;1.40;;;;;;;;;;467279;28;1020;-75
2023/09/19 00:14:56;;;;;;;2.27;1.20;;;;;;;;;;466828;28;1273;-76
2023/09/19 00:15:12;;;;;;;2.03;1.20;;;;;;;;;;469583;28;1186;-74
2023/09/19 00:15:31;;;;;;;2.13;1.40;;;;;;;;;;468151;28;982;-75
2023/09/19 00:15:48;;;;;;;2.80;1.30;;;;;;;;;;469748;28;1149;-75
2023/09/19 00:16:10;;;;;;;2.88;1.38;;;;;;;;;;468958;28;1272;-75
2023/09/19 00:16:27;;;;;;;2.38;1.40;;;;;;;;;;467911;28;1351;-75
2023/09/19 00:16:42;;;;;;;2.33;1.33;;;;;;;;;;467833;28;1570;-74
2023/09/19 00:17:00;;;;;;;2.37;1.30;;;;;;;;;;468071;28;1307;-75
2023/09/19 00:17:16;;;;;;;2.15;1.30;;;;;;;;;;467058;28;1722;-74
2023/09/19 00:17:31;;;;;;;2.53;1.40;;;;;;;;;;466953;28;1115;-75
2023/09/19 00:17:47;;;;;;;3.57;1.47;;;;;;;;;;466824;28;1041;-75
2023/09/19 00:18:06;;;;;;;3.55;1.27;;;;;;;;;;467530;28;1236;-75
2023/09/19 00:18:22;;;;;;;2.35;1.23;;;;;;;;;;468012;28;1382;-75
2023/09/19 00:18:38;;;;;;;2.38;1.30;;;;;;;;;;467416;28;1203;-75
2023/09/19 00:18:53;;;;;;;2.80;1.20;;;;;;;;;;468126;28;1441;-75
2023/09/19 00:19:08;;;;;;;3.17;1.10;;;;;;;;;;469043;28;1107;-75
2023/09/19 00:19:24;;;;;;;2.90;1.10;;;;;;;;;;469017;28;1049;-75
2023/09/19 00:19:42;;;;;;;2.70;1.20;;;;;;;;;;468253;28;1029;-75
2023/09/19 00:19:58;;;;;;;2.85;1.30;;;;;;;;;;466084;28;1134;-75
2023/09/19 00:20:17;;;;;;;1.80;1.10;;;;;;;;;;466901;28;1311;-75
2023/09/19 00:20:36;;;;;;;1.95;1.23;;;;;;;;;;468711;28;989;-75
2023/09/19 00:20:51;;;;;;;2.78;1.40;;;;;;;;;;469420;28;1275;-74
2023/09/19 00:21:07;;;;;;;3.30;1.50;;;;;;;;;;468624;28;1133;-75
2023/09/19 00:21:22;;;;;;;3.17;1.35;;;;;;;;;;467951;28;1217;-74
2023/09/19 00:21:38;;;;;;;2.57;1.20;;;;;;;;;;467243;28;1243;-74
2023/09/19 00:21:53;;;;;;;1.80;1.25;;;;;;;;;;466218;28;989;-75
2023/09/19 00:22:09;;;;;;;1.67;1.23;;;;;;;;;;466806;28;1370;-75
2023/09/19 00:22:26;;;;;;;2.00;1.30;;;;;;;;;;465769;28;1335;-75
2023/09/19 00:22:44;;;;;;;3.00;1.45;;;;;;;;;;463435;28;1254;-75
2023/09/19 00:23:05;;;;;;;2.40;1.30;;;;;;;;;;463888;28;1350;-75
2023/09/19 00:23:21;;;;;;;2.22;1.30;;;;;;;;;;464996;28;3815;-75
2023/09/19 00:23:36;;;;;;;2.13;1.30;;;;;;;;;;466087;28;1392;-75
2023/09/19 00:23:52;;;;;;;2.30;1.20;;;;;;;;;;462878;28;1112;-75
2023/09/19 00:24:08;;;;;;;2.00;1.10;;;;;;;;;;464441;28;1203;-75
2023/09/19 00:24:24;;;;;;;2.42;1.30;;;;;;;;;;464635;28;1286;-75
2023/09/19 00:24:40;;;;;;;3.40;1.50;;;;;;;;;;465094;28;1031;-74
2023/09/19 00:24:55;;;;;;;3.55;1.40;;;;;;;;;;467222;28;911;-75
2023/09/19 00:25:12;;;;;;;2.60;1.33;;;;;;;;;;465837;28;1162;-75
2023/09/19 00:25:27;;;;;;;2.58;1.50;;;;;;;;;;468343;28;949;-75
2023/09/19 00:25:42;;;;;;;2.67;1.42;;;;;;;;;;465607;28;1184;-75
2023/09/19 00:26:01;;;;;;;2.13;1.23;;;;;;;;;;465512;28;1430;-75
2023/09/19 00:26:17;;;;;;;1.85;1.23;;;;;;;;;;466422;28;1128;-74
2023/09/19 00:26:34;;;;;;;2.35;1.40;;;;;;;;;;467348;28;1062;-75
2023/09/19 00:26:49;;;;;;;2.63;1.25;;;;;;;;;;467889;28;1355;-75
2023/09/19 00:27:05;;;;;;;2.40;1.20;;;;;;;;;;468066;28;1148;-75
2023/09/19 00:27:20;;;;;;;2.30;1.23;;;;;;;;;;468671;28;1027;-75
2023/09/19 00:27:41;;;;;;;2.03;1.20;;;;;;;;;;467806;28;1311;-75
2023/09/19 00:27:56;;;;;;;2.00;1.23;;;;;;;;;;467718;28;1288;-75
2023/09/19 00:28:12;;;;;;;1.97;1.30;;;;;;;;;;467130;28;1078;-75
2023/09/19 00:28:29;;;;;;;2.70;1.30;;;;;;;;;;477710;28;957;-75
2023/09/19 00:28:45;;;;;;;2.70;1.30;;;;;;;;;;476168;28;1581;-75
2023/09/19 00:29:03;;;;;;;3.00;1.20;;;;;;;;;;469069;28;1111;-76
2023/09/19 00:29:19;;;;;;;3.75;1.38;;;;;;;;;;466035;28;1530;-75
2023/09/19 00:29:34;;;;;;;2.67;1.40;;;;;;;;;;466787;28;1193;-75
2023/09/19 00:29:50;;;;;;;2.03;1.23;;;;;;;;;;467196;28;1239;-75
2023/09/19 00:30:08;;;;;;;2.60;1.30;;;;;;;;;;465423;28;1089;-75
2023/09/19 00:30:24;;;;;;;3.17;1.38;;;;;;;;;;462245;28;1222;-75
2023/09/19 00:30:42;;;;;;;2.50;1.20;;;;;;;;;;462766;28;1093;-75
2023/09/19 00:31:01;;;;;;;2.78;1.45;;;;;;;;;;465332;28;1297;-75
2023/09/19 00:31:16;;;;;;;3.17;1.50;;;;;;;;;;465432;28;894;-75
2023/09/19 00:31:32;;;;;;;2.33;1.40;;;;;;;;;;464542;28;1228;-75
2023/09/19 00:31:47;;;;;;;2.10;1.40;;;;;;;;;;463850;28;918;-75
2023/09/19 00:32:03;;;;;;;2.77;1.57;;;;;;;;;;465969;28;1236;-75
2023/09/19 00:32:18;;;;;;;3.35;1.55;;;;;;;;;;470233;28;1217;-75
2023/09/19 00:32:34;;;;;;;3.27;1.50;;;;;;;;;;465876;28;1369;-76
2023/09/19 00:32:54;;;;;;;2.30;1.50;;;;;;;;;;467877;28;1026;-75
2023/09/19 00:33:11;;;;;;;2.55;1.48;;;;;;;;;;466624;28;1354;-75
2023/09/19 00:33:27;;;;;;;2.57;1.47;;;;;;;;;;466349;28;1178;-75
2023/09/19 00:33:42;;;;;;;2.42;1.50;;;;;;;;;;464976;28;1419;-74
2023/09/19 00:33:59;;;;;;;2.25;1.38;;;;;;;;;;463580;28;2039;-75
2023/09/19 00:34:16;;;;;;;1.83;1.30;;;;;;;;;;464266;28;1163;-75
2023/09/19 00:34:34;;;;;;;2.40;1.40;;;;;;;;;;464563;28;1472;-75
2023/09/19 00:34:49;;;;;;;3.45;1.52;;;;;;;;;;463728;28;1251;-75
2023/09/19 00:35:05;;;;;;;3.67;1.50;;;;;;;;;;464859;28;1283;-75
2023/09/19 00:35:24;;;;;;;2.72;1.38;;;;;;;;;;464003;28;1287;-75
2023/09/19 00:35:47;;;;;;;2.30;1.30;;;;;;;;;;465841;28;1755;-75
2023/09/19 00:36:05;;;;;;;1.90;1.30;;;;;;;;;;467086;28;1599;-75
2023/09/19 00:36:20;;;;;;;2.38;1.50;;;;;;;;;;467261;28;1364;-75
2023/09/19 00:36:39;;;;;;;2.63;1.40;;;;;;;;;;463768;28;1486;-75
2023/09/19 00:36:54;;;;;;;2.78;1.23;;;;;;;;;;465768;28;1250;-75
2023/09/19 00:37:11;;;;;;;2.67;1.30;;;;;;;;;;464143;28;1216;-75
2023/09/19 00:37:26;;;;;;;2.67;1.33;;;;;;;;;;464086;28;1196;-75
2023/09/19 00:37:42;;;;;;;2.10;1.27;;;;;;;;;;463848;28;1367;-75
2023/09/19 00:37:57;;;;;;;2.40;1.20;;;;;;;;;;463730;28;1333;-75
2023/09/19 00:38:16;;;;;;;2.47;1.20;;;;;;;;;;465013;28;1228;-75
2023/09/19 00:38:32;;;;;;;2.00;1.40;;;;;;;;;;464374;28;1084;-75
2023/09/19 00:38:47;;;;;;;2.60;1.40;;;;;;;;;;465238;28;1386;-75
2023/09/19 00:39:03;;;;;;;3.27;1.40;;;;;;;;;;466549;28;1129;-75
2023/09/19 00:39:21;;;;;;;2.95;1.30;;;;;;;;;;466715;28;890;-75
2023/09/19 00:39:37;;;;;;;2.35;1.20;;;;;;;;;;466774;28;1407;-75
2023/09/19 00:39:53;;;;;;;1.90;1.10;;;;;;;;;;467087;28;1138;-75
2023/09/19 00:40:15;;;;;;;2.47;1.20;;;;;;;;;;465866;28;1295;-75
2023/09/19 00:40:30;;;;;;;3.33;1.30;;;;;;;;;;465465;28;2007;-75
2023/09/19 00:40:46;;;;;;;3.17;1.30;;;;;;;;;;468592;28;1227;-74
2023/09/19 00:41:02;;;;;;;2.67;1.40;;;;;;;;;;467260;28;1058;-76
2023/09/19 00:41:17;;;;;;;2.73;1.47;;;;;;;;;;467492;28;1251;-75
2023/09/19 00:41:35;;;;;;;2.55;1.40;;;;;;;;;;466487;28;923;-75
2023/09/19 00:41:50;;;;;;;2.17;1.30;;;;;;;;;;467855;28;946;-75
2023/09/19 00:42:06;;;;;;;1.98;1.27;;;;;;;;;;467530;28;1269;-75
2023/09/19 00:42:21;;;;;;;2.00;1.10;;;;;;;;;;467563;28;939;-75
2023/09/19 00:42:37;;;;;;;2.00;1.08;;;;;;;;;;469869;28;1116;-75
2023/09/19 00:42:59;;;;;;;3.17;1.20;;;;;;;;;;468654;28;1184;-75
2023/09/19 00:43:15;;;;;;;4.47;1.52;;;;;;;;;;468548;28;1131;-75
2023/09/19 00:43:34;;;;;;;3.65;1.50;;;;;;;;;;469696;28;913;-75
2023/09/19 00:43:50;;;;;;;2.85;1.35;;;;;;;;;;470226;28;890;-75
2023/09/19 00:44:07;;;;;;;3.25;1.50;;;;;;;;;;467010;28;1150;-75
2023/09/19 00:44:23;;;;;;;2.75;1.45;;;;;;;;;;468663;28;1040;-75
2023/09/19 00:44:40;;;;;;;2.55;1.40;;;;;;;;;;467453;28;1435;-75
2023/09/19 00:44:55;;;;;;;2.90;1.40;;;;;;;;;;466959;28;1046;-75
2023/09/19 00:45:12;;;;;;;2.10;1.30;;;;;;;;;;470524;28;1028;-76
2023/09/19 00:45:28;;;;;;;2.00;1.20;;;;;;;;;;468799;28;1239;-75
2023/09/19 00:45:50;;;;;;;2.28;1.23;;;;;;;;;;466533;28;1198;-75
2023/09/19 00:46:06;;;;;;;4.32;1.40;;;;;;;;;;468134;28;1272;-75
2023/09/19 00:46:22;;;;;;;4.30;1.50;;;;;;;;;;466658;28;1147;-75
2023/09/19 00:46:38;;;;;;;2.30;1.30;;;;;;;;;;467601;28;1204;-76
2023/09/19 00:46:53;;;;;;;2.50;1.30;;;;;;;;;;464789;28;1127;-76
2023/09/19 00:47:09;;;;;;;3.20;1.50;;;;;;;;;;465098;28;1156;-76
2023/09/19 00:47:25;;;;;;;3.13;1.58;;;;;;;;;;466019;28;1174;-75
2023/09/19 00:47:51;;;;;;;3.17;1.50;;;;;;;;;;464714;28;1261;-75
2023/09/19 00:48:08;;;;;;;2.67;1.30;;;;;;;;;;466596;28;1104;-75
2023/09/19 00:48:28;;;;;;;2.38;1.27;;;;;;;;;;466684;28;1254;-75
2023/09/19 00:48:43;;;;;;;3.42;1.40;;;;;;;;;;468109;28;1084;-75
2023/09/19 00:48:59;;;;;;;2.88;1.38;;;;;;;;;;466946;28;1013;-75
2023/09/19 00:49:15;;;;;;;4.23;1.33;;;;;;;;;;469166;28;1024;-75
2023/09/19 00:49:32;;;;;;;5.68;1.50;;;;;;;;;;466749;28;1171;-75
2023/09/19 00:49:52;;;;;;;2.80;1.30;;;;;;;;;;466224;28;1198;-75
2023/09/19 00:50:10;;;;;;;3.72;1.40;;;;;;;;;;465041;28;1081;-75
2023/09/19 00:50:27;;;;;;;2.80;1.35;;;;;;;;;;466853;28;1155;-75
2023/09/19 00:50:43;;;;;;;2.28;1.40;;;;;;;;;;468178;28;1280;-75
2023/09/19 00:51:03;;;;;;;3.17;1.40;;;;;;;;;;468594;28;1256;-75
2023/09/19 00:51:20;;;;;;;3.85;1.40;;;;;;;;;;467582;28;1291;-75
2023/09/19 00:51:36;;;;;;;3.05;1.38;;;;;;;;;;468887;28;1369;-75
2023/09/19 00:51:51;;;;;;;2.67;1.20;;;;;;;;;;466985;28;1115;-75
2023/09/19 00:52:09;;;;;;;2.43;1.13;;;;;;;;;;466981;28;856;-75
2023/09/19 00:52:25;;;;;;;2.00;1.30;;;;;;;;;;465197;28;1352;-75
2023/09/19 00:52:42;;;;;;;2.42;1.30;;;;;;;;;;464696;28;2345;-75
2023/09/19 00:52:58;;;;;;;3.17;1.40;;;;;;;;;;465136;28;1183;-75
2023/09/19 00:53:22;;;;;;;2.55;1.40;;;;;;;;;;465911;28;1158;-75
2023/09/19 00:53:39;;;;;;;2.65;1.27;;;;;;;;;;465135;28;952;-75
2023/09/19 00:53:54;;;;;;;3.88;1.35;;;;;;;;;;464108;28;2363;-75
2023/09/19 00:54:10;;;;;;;3.67;1.50;;;;;;;;;;465697;28;1118;-75
2023/09/19 00:54:25;;;;;;;2.97;1.40;;;;;;;;;;464907;28;1211;-75
2023/09/19 00:54:41;;;;;;;2.37;1.30;;;;;;;;;;469638;28;1087;-75
2023/09/19 00:54:56;;;;;;;1.60;1.20;;;;;;;;;;466044;28;1153;-75
2023/09/19 00:55:13;;;;;;;2.13;1.40;;;;;;;;;;466010;28;1128;-75
2023/09/19 00:55:29;;;;;;;2.60;1.30;;;;;;;;;;464791;28;1631;-75
2023/09/19 00:55:47;;;;;;;2.17;1.15;;;;;;;;;;466245;28;1111;-75
2023/09/19 00:56:08;;;;;;;2.47;1.30;;;;;;;;;;465928;28;1325;-75
2023/09/19 00:56:23;;;;;;;2.20;1.20;;;;;;;;;;466090;28;1690;-75
2023/09/19 00:56:40;;;;;;;2.47;1.27;;;;;;;;;;464258;28;1277;-75
2023/09/19 00:56:56;;;;;;;3.50;1.38;;;;;;;;;;465405;28;1251;-75
2023/09/19 00:57:11;;;;;;;2.80;1.40;;;;;;;;;;467597;28;1229;-75
2023/09/19 00:57:26;;;;;;;2.08;1.30;;;;;;;;;;464922;28;1191;-75
2023/09/19 00:57:43;;;;;;;2.53;1.27;;;;;;;;;;464176;28;1021;-75
2023/09/19 00:57:59;;;;;;;2.45;1.30;;;;;;;;;;465577;28;1346;-75
2023/09/19 00:58:16;;;;;;;2.10;1.20;;;;;;;;;;466022;28;907;-75
2023/09/19 00:58:33;;;;;;;3.55;1.25;;;;;;;;;;467986;28;1108;-75
2023/09/19 00:58:49;;;;;;;3.70;1.33;;;;;;;;;;467364;28;910;-75
2023/09/19 00:59:04;;;;;;;2.45;1.40;;;;;;;;;;463111;28;1177;-75
2023/09/19 00:59:22;;;;;;;2.20;1.40;;;;;;;;;;463277;28;1167;-74
2023/09/19 00:59:38;;;;;;;2.65;1.42;;;;;;;;;;465546;28;1219;-75
2023/09/19 00:59:55;;;;;;;2.63;1.30;;;;;;;;;;467484;28;1398;-75
2023/09/19 01:00:15;;;;;;;2.35;1.40;;;;;;;;;;468968;28;1257;-75
2023/09/19 01:00:33;;;;;;;2.42;1.40;;;;;;;;;;465941;28;1288;-75
2023/09/19 01:00:49;;;;;;;2.03;1.20;;;;;;;;;;467011;28;1114;-74
2023/09/19 01:01:06;;;;;;;2.17;1.30;;;;;;;;;;465611;28;1396;-75
2023/09/19 01:01:22;;;;;;;2.80;1.42;;;;;;;;;;467723;28;1253;-75
2023/09/19 01:01:39;;;;;;;2.80;1.40;;;;;;;;;;464061;28;1115;-75
2023/09/19 01:01:56;;;;;;;2.50;1.40;;;;;;;;;;469083;28;1314;-75
2023/09/19 01:02:14;;;;;;;3.03;1.50;;;;;;;;;;470114;28;1227;-74
2023/09/19 01:02:29;;;;;;;3.33;1.50;;;;;;;;;;466868;28;1491;-74
2023/09/19 01:02:46;;;;;;;3.50;1.50;;;;;;;;;;469885;28;1077;-75
2023/09/19 01:03:01;;;;;;;3.15;1.40;;;;;;;;;;466443;28;1296;-75
2023/09/19 01:03:18;;;;;;;3.60;1.40;;;;;;;;;;465990;28;1046;-75
2023/09/19 01:03:33;;;;;;;4.75;1.50;;;;;;;;;;468242;28;1433;-75
2023/09/19 01:03:49;;;;;;;3.73;1.37;;;;;;;;;;467792;28;1097;-75
2023/09/19 01:04:06;;;;;;;2.65;1.40;;;;;;;;;;467258;28;1227;-75
2023/09/19 01:04:22;;;;;;;3.53;1.48;;;;;;;;;;467311;28;1151;-75
2023/09/19 01:04:37;;;;;;;3.45;1.38;;;;;;;;;;464551;28;1192;-75
2023/09/19 01:04:53;;;;;;;2.33;1.30;;;;;;;;;;468566;28;1042;-74
2023/09/19 01:05:09;;;;;;;2.13;1.25;;;;;;;;;;468878;28;959;-74
2023/09/19 01:05:25;;;;;;;1.73;1.20;;;;;;;;;;466757;28;1212;-74
2023/09/19 01:05:40;;;;;;;1.90;1.20;;;;;;;;;;468028;28;1216;-74
2023/09/19 01:05:56;;;;;;;2.20;1.30;;;;;;;;;;469725;28;1264;-75
2023/09/19 01:06:12;;;;;;;3.07;1.33;;;;;;;;;;470700;28;1019;-75
2023/09/19 01:06:27;;;;;;;3.35;1.30;;;;;;;;;;467066;28;1160;-75
2023/09/19 01:06:42;;;;;;;2.58;1.30;;;;;;;;;;466481;28;1101;-74
2023/09/19 01:06:58;;;;;;;2.33;1.33;;;;;;;;;;467170;28;1009;-74
2023/09/19 01:07:14;;;;;;;3.17;1.40;;;;;;;;;;463480;28;1243;-75
2023/09/19 01:07:33;;;;;;;3.50;1.40;;;;;;;;;;464113;28;1230;-74
2023/09/19 01:07:49;;;;;;;4.00;1.33;;;;;;;;;;465567;28;1051;-74
2023/09/19 01:08:06;;;;;;;3.70;1.40;;;;;;;;;;465804;28;1133;-74
2023/09/19 01:08:21;;;;;;;3.05;1.40;;;;;;;;;;468995;28;1283;-74
2023/09/19 01:08:37;;;;;;;2.43;1.37;;;;;;;;;;466694;28;1287;-75
2023/09/19 01:08:54;;;;;;;1.97;1.30;;;;;;;;;;466462;28;1287;-74
2023/09/19 01:09:10;;;;;;;2.20;1.20;;;;;;;;;;466812;28;1267;-74
2023/09/19 01:09:26;;;;;;;2.42;1.08;;;;;;;;;;465409;28;1269;-75
2023/09/19 01:09:42;;;;;;;3.42;1.25;;;;;;;;;;463943;28;1223;-75
2023/09/19 01:10:00;;;;;;;3.70;1.27;;;;;;;;;;463986;28;1671;-75
2023/09/19 01:10:20;;;;;;;2.78;1.20;;;;;;;;;;462874;28;915;-75
2023/09/19 01:10:38;;;;;;;2.60;1.30;;;;;;;;;;463547;28;879;-75
2023/09/19 01:11:00;;;;;;;2.78;1.23;;;;;;;;;;465174;28;1291;-74
2023/09/19 01:11:35;;;;;;;2.13;1.10;;;;;;;;;;464788;28;953;-75
2023/09/19 01:11:57;;;;;;;1.80;1.20;;;;;;;;;;469357;28;1112;-74
2023/09/19 01:12:18;;;;;;;1.77;1.20;;;;;;;;;;469362;28;1340;-74
2023/09/19 01:12:58;;;;;;;3.50;1.27;;;;;;;;;;468045;28;1042;-75
2023/09/19 01:13:34;;;;;;;1.85;1.20;;;;;;;;;;468723;28;859;-74
2023/09/19 01:13:57;;;;;;;1.95;1.30;;;;;;;;;;469873;28;1985;-75
2023/09/19 01:14:39;;;;;;;2.95;1.30;;;;;;;;;;469681;28;1646;-74
2023/09/19 01:15:00;;;;;;;2.25;1.23;;;;;;;;;;469067;28;968;-70
2023/09/19 01:15:24;;;;;;;3.22;1.48;;;;;;;;;;468491;28;1781;-75
2023/09/19 01:15:58;;;;;;;2.83;1.50;;;;;;;;;;467689;28;1224;-75
2023/09/19 01:16:45;;;;;;;3.45;1.40;;;;;;;;;;467145;28;1259;-75
2023/09/19 01:17:09;;;;;;;3.38;1.25;;;;;;;;;;468733;28;1056;-75
2023/09/19 01:17:32;;;;;;;3.05;1.27;;;;;;;;;;468553;28;1276;-75
2023/09/19 01:18:04;;;;;;;3.08;1.23;;;;;;;;;;467975;28;1001;-75
2023/09/19 01:18:57;;;;;;;4.85;1.42;;;;;;;;;;469673;28;1282;-75
2023/09/19 01:19:54;;;;;;;2.95;1.38;;;;;;;;;;471522;28;1203;-75
2023/09/19 01:20:33;;;;;;;3.85;1.30;;;;;;;;;;472700;28;945;-75
2023/09/19 01:20:49;;;;;;;2.90;1.30;;;;;;;;;;470278;28;1308;-74
2023/09/19 01:21:25;;;;;;;2.53;1.30;;;;;;;;;;470987;28;1149;-75
2023/09/19 01:22:17;;;;;;;3.00;1.23;;;;;;;;;;468793;28;1414;-76
2023/09/19 01:22:51;;;;;;;3.03;1.33;;;;;;;;;;462118;28;1553;-75
2023/09/19 01:23:23;;;;;;;2.63;1.08;;;;;;;;;;465034;28;1008;-75
2023/09/19 01:24:17;;;;;;;3.83;1.20;;;;;;;;;;470845;28;1876;-74
2023/09/19 01:25:01;;;;;;;3.40;1.40;;;;;;;;;;473140;28;1140;-75
2023/09/19 01:25:39;;;;;;;3.53;1.20;;;;;;;;;;470366;28;1104;-74
2023/09/19 01:26:23;;;;;;;2.67;1.10;;;;;;;;;;462394;28;1180;-75
2023/09/19 01:27:12;;;;;;;1.75;1.10;;;;;;;;;;462442;28;1121;-74
2023/09/19 01:27:30;;;;;;;2.45;1.27;;;;;;;;;;470383;28;910;-74
2023/09/19 01:27:57;;;;;;;2.47;1.20;;;;;;;;;;468757;28;1464;-75
2023/09/19 01:28:37;;;;;;;2.58;1.20;;;;;;;;;;468882;28;1494;-75
2023/09/19 01:29:01;;;;;;;2.87;1.20;;;;;;;;;;468757;28;985;-75
2023/09/19 01:29:19;;;;;;;2.03;1.23;;;;;;;;;;466885;28;1207;-74
2023/09/19 01:29:49;;;;;;;3.03;1.30;;;;;;;;;;468896;28;1134;-75
2023/09/19 01:30:14;;;;;;;2.45;1.20;;;;;;;;;;469979;28;1201;-74
2023/09/19 01:30:34;;;;;;;2.80;1.20;;;;;;;;;;468529;28;1818;-75
2023/09/19 01:30:57;;;;;;;3.75;1.13;;;;;;;;;;469781;28;1032;-75
2023/09/19 01:31:14;;;;;;;2.50;1.00;;;;;;;;;;472106;28;1626;-74
2023/09/19 01:31:35;;;;;;;3.10;1.10;;;;;;;;;;470974;28;1148;-75
2023/09/19 01:31:54;;;;;;;2.67;1.10;;;;;;;;;;469595;28;1212;-74
2023/09/19 01:32:13;;;;;;;2.70;1.23;;;;;;;;;;471727;28;1304;-74
2023/09/19 01:32:29;;;;;;;3.20;1.20;;;;;;;;;;475544;28;1098;-74
2023/09/19 01:32:46;;;;;;;2.65;1.13;;;;;;;;;;472250;28;1047;-74
2023/09/19 01:33:03;;;;;;;2.60;1.13;;;;;;;;;;471545;28;894;-75
2023/09/19 01:33:19;;;;;;;2.58;1.13;;;;;;;;;;477221;28;1474;-75
2023/09/19 01:33:57;;;;;;;3.70;1.20;;;;;;;;;;471208;28;1260;-75
2023/09/19 01:34:12;;;;;;;3.38;1.00;;;;;;;;;;470484;28;1199;-75
2023/09/19 01:34:54;;;;;;;4.07;1.10;;;;;;;;;;478679;28;1252;-75
2023/09/19 01:35:12;;;;;;;4.97;1.30;;;;;;;;;;468476;28;1357;-75
2023/09/19 01:35:28;;;;;;;3.35;1.23;;;;;;;;;;474096;28;1046;-74
2023/09/19 01:35:43;;;;;;;2.88;1.20;;;;;;;;;;469260;28;886;-75
2023/09/19 01:35:58;;;;;;;2.80;1.10;;;;;;;;;;468768;28;1168;-74
2023/09/19 01:36:15;;;;;;;3.07;1.10;;;;;;;;;;470571;28;1249;-75
2023/09/19 01:36:35;;;;;;;2.78;1.10;;;;;;;;;;482413;28;960;-75
2023/09/19 01:36:50;;;;;;;2.63;1.15;;;;;;;;;;480956;28;1209;-75
2023/09/19 01:37:07;;;;;;;2.60;1.20;;;;;;;;;;470055;28;1153;-75
2023/09/19 01:37:26;;;;;;;3.05;1.15;;;;;;;;;;468847;28;1401;-74
2023/09/19 01:37:43;;;;;;;4.05;1.23;;;;;;;;;;477466;28;1342;-75
2023/09/19 01:37:59;;;;;;;4.10;1.38;;;;;;;;;;469095;28;1480;-74
2023/09/19 01:38:15;;;;;;;3.15;1.27;;;;;;;;;;471955;28;1048;-75
2023/09/19 01:38:30;;;;;;;2.58;1.10;;;;;;;;;;472354;28;1053;-74
2023/09/19 01:38:45;;;;;;;2.43;1.20;;;;;;;;;;469167;28;853;-75
2023/09/19 01:39:08;;;;;;;1.95;1.10;;;;;;;;;;470127;28;1068;-74
2023/09/19 01:39:24;;;;;;;2.92;1.20;;;;;;;;;;468589;28;1229;-75
2023/09/19 01:39:41;;;;;;;3.20;1.20;;;;;;;;;;478214;28;1119;-74
2023/09/19 01:40:04;;;;;;;2.97;1.02;;;;;;;;;;470186;28;990;-74
2023/09/19 01:40:22;;;;;;;2.10;0.93;;;;;;;;;;477709;28;1319;-75
2023/09/19 01:40:42;;;;;;;1.90;1.05;;;;;;;;;;476465;28;1177;-75
2023/09/19 01:41:08;;;;;;;1.58;1.10;;;;;;;;;;472226;28;989;-74
2023/09/19 01:41:38;;;;;;;1.60;1.00;;;;;;;;;;467383;28;1044;-75
2023/09/19 01:42:19;;;;;;;2.70;1.10;;;;;;;;;;468345;28;1170;-75
2023/09/19 01:43:07;;;;;;;3.45;1.10;;;;;;;;;;469125;28;1629;-74
2023/09/19 01:43:37;;;;;;;2.20;1.00;;;;;;;;;;470521;28;1741;-75
2023/09/19 01:43:53;;;;;;;3.55;1.20;;;;;;;;;;463985;28;1139;-75
2023/09/19 01:44:17;;;;;;;2.77;0.90;;;;;;;;;;466072;28;1355;-75
2023/09/19 01:44:42;;;;;;;2.00;0.90;;;;;;;;;;470325;28;1178;-75
2023/09/19 01:45:07;;;;;;;3.50;1.10;;;;;;;;;;467881;28;1114;-74
2023/09/19 01:45:22;;;;;;;4.32;1.10;;;;;;;;;;473436;28;983;-74
2023/09/19 01:46:06;;;;;;;3.70;1.20;;;;;;;;;;467662;28;1307;-74
2023/09/19 01:46:28;;;;;;;3.85;1.30;;;;;;;;;;469048;28;1551;-74
2023/09/19 01:46:47;;;;;;;3.22;1.20;;;;;;;;;;472447;28;1075;-74
2023/09/19 01:47:08;;;;;;;3.35;1.23;;;;;;;;;;479155;28;1271;-74
2023/09/19 01:47:55;;;;;;;2.60;1.10;;;;;;;;;;473356;28;1257;-73
2023/09/19 01:48:35;;;;;;;3.40;1.20;;;;;;;;;;471638;28;1326;-75
2023/09/19 01:49:02;;;;;;;2.83;1.10;;;;;;;;;;463890;28;1016;-74
2023/09/19 01:49:46;;;;;;;1.90;1.00;;;;;;;;;;472811;28;1284;-75
2023/09/19 01:50:12;;;;;;;2.53;1.10;;;;;;;;;;468604;28;1092;-77
2023/09/19 01:50:40;;;;;;;2.60;1.10;;;;;;;;;;475023;28;1298;-74
2023/09/19 01:51:01;;;;;;;2.70;1.10;;;;;;;;;;468402;28;1199;-74
2023/09/19 01:51:37;;;;;;;2.58;1.17;;;;;;;;;;471555;28;1254;-74
2023/09/19 01:52:16;;;;;;;2.97;1.00;;;;;;;;;;465879;28;1154;-74
2023/09/19 01:52:38;;;;;;;2.75;1.08;;;;;;;;;;465959;28;1231;-74
2023/09/19 01:52:58;;;;;;;3.30;1.20;;;;;;;;;;465636;28;1173;-75
2023/09/19 01:53:21;;;;;;;3.33;1.20;;;;;;;;;;470372;28;1286;-74
2023/09/19 01:54:06;;;;;;;2.30;1.20;;;;;;;;;;467153;28;1145;-75
2023/09/19 01:54:27;;;;;;;3.85;1.30;;;;;;;;;;469769;28;1235;-74
2023/09/19 01:54:52;;;;;;;2.50;1.20;;;;;;;;;;469857;28;937;-75
2023/09/19 01:55:10;;;;;;;2.80;1.10;;;;;;;;;;470059;28;957;-75
2023/09/19 01:55:28;;;;;;;2.78;1.10;;;;;;;;;;476196;28;1338;-74
2023/09/19 01:55:51;;;;;;;2.97;1.10;;;;;;;;;;473505;28;1231;-75
2023/09/19 01:56:12;;;;;;;2.90;1.20;;;;;;;;;;468373;28;1068;-75
2023/09/19 01:56:54;;;;;;;4.05;1.40;;;;;;;;;;473315;28;1260;-74
2023/09/19 01:57:14;;;;;;;3.75;1.10;;;;;;;;;;468439;28;1069;-74
2023/09/19 01:57:35;;;;;;;3.50;1.10;;;;;;;;;;476409;28;1128;-74
2023/09/19 01:58:13;;;;;;;2.15;1.20;;;;;;;;;;470421;28;1182;-74
2023/09/19 01:58:31;;;;;;;3.70;1.23;;;;;;;;;;479198;28;1128;-74
2023/09/19 01:58:51;;;;;;;2.92;1.30;;;;;;;;;;470194;28;1148;-74
2023/09/19 01:59:17;;;;;;;3.67;1.20;;;;;;;;;;469878;28;1630;-74
2023/09/19 01:59:44;;;;;;;2.58;1.20;;;;;;;;;;473328;28;1180;-74
2023/09/19 02:00:06;;;;;;;3.65;1.17;;;;;;;;;;466883;28;1200;-75
2023/09/19 02:00:23;;;;;;;2.55;1.10;;;;;;;;;;471096;28;1179;-74
2023/09/19 02:00:42;;;;;;;4.00;1.30;;;;;;;;;;467554;28;1493;-75
2023/09/19 02:00:59;;;;;;;3.10;1.38;;;;;;;;;;466968;28;1352;-74
2023/09/19 02:01:22;;;;;;;2.13;1.27;;;;;;;;;;470266;28;1289;-75
2023/09/19 02:01:37;;;;;;;2.05;1.10;;;;;;;;;;474752;28;1265;-74
2023/09/19 02:01:55;;;;;;;2.17;1.17;;;;;;;;;;484721;28;1354;-74
2023/09/19 02:02:12;;;;;;;4.65;1.25;;;;;;;;;;471755;28;1058;-74